createdAt,value
2023-04-27T00:01:15.605Z,99.90
2023-04-27T00:03:43.021Z,99.90
2023-04-27T00:06:10.175Z,99.90
2023-04-27T00:08:37.376Z,99.90
2023-04-27T00:11:04.372Z,99.90
2023-04-27T00:13:31.147Z,99.90
2023-04-27T00:16:00.820Z,99.90
2023-04-27T00:18:27.631Z,99.90
2023-04-27T00:20:54.370Z,99.90
2023-04-27T00:23:21.464Z,99.90
2023-04-27T00:25:48.218Z,99.90
2023-04-27T00:28:15.018Z,99.90
2023-04-27T00:30:41.792Z,99.90
2023-04-27T00:33:08.729Z,99.90
2023-04-27T00:35:35.593Z,99.90
2023-04-27T00:38:02.395Z,99.90
2023-04-27T00:40:29.225Z,99.90
2023-04-27T00:42:55.901Z,99.90
2023-04-27T00:45:22.659Z,99.90
2023-04-27T00:47:49.925Z,99.90
2023-04-27T00:50:17.056Z,99.90
2023-04-27T00:52:44.298Z,99.90
2023-04-27T00:55:11.718Z,99.90
2023-04-27T00:57:38.914Z,99.90
2023-04-27T01:00:07.167Z,99.90
2023-04-27T01:02:35.628Z,99.90
2023-04-27T01:05:03.624Z,99.90
2023-04-27T01:07:30.505Z,99.90
2023-04-27T01:09:57.266Z,99.90
2023-04-27T01:12:24.034Z,99.90
2023-04-27T01:14:50.864Z,99.90
2023-04-27T01:17:19.221Z,99.90
2023-04-27T01:19:45.956Z,99.90
2023-04-27T01:22:15.166Z,99.90
2023-04-27T01:24:41.935Z,99.90
2023-04-27T01:27:08.919Z,99.90
2023-04-27T01:29:36.003Z,99.90
2023-04-27T01:32:02.797Z,99.90
2023-04-27T01:34:29.507Z,99.90
2023-04-27T01:36:56.410Z,99.90
2023-04-27T01:39:23.191Z,99.90
2023-04-27T01:41:49.902Z,99.90
2023-04-27T01:44:16.783Z,99.90
2023-04-27T01:46:43.474Z,99.90
2023-04-27T01:49:10.272Z,99.90
2023-04-27T01:51:37.038Z,99.90
2023-04-27T01:54:03.830Z,99.90
2023-04-27T01:56:30.638Z,99.90
2023-04-27T01:58:57.369Z,99.90
2023-04-27T02:01:24.224Z,99.90
2023-04-27T02:03:51.197Z,99.90
2023-04-27T02:06:17.968Z,99.90
2023-04-27T02:08:44.768Z,99.90
2023-04-27T02:11:11.482Z,99.90
2023-04-27T02:13:38.248Z,99.90
2023-04-27T02:16:05.371Z,99.90
2023-04-27T02:18:33.762Z,99.90
2023-04-27T02:21:01.100Z,99.90
2023-04-27T02:23:27.876Z,99.90
2023-04-27T02:25:54.709Z,99.90
2023-04-27T02:28:21.361Z,99.90
2023-04-27T02:30:48.477Z,99.90
2023-04-27T02:33:15.206Z,99.90
2023-04-27T02:35:41.953Z,99.90
2023-04-27T02:38:08.697Z,99.90
2023-04-27T02:40:35.573Z,99.90
2023-04-27T02:43:02.368Z,99.90
2023-04-27T02:45:29.713Z,99.90
2023-04-27T02:47:56.598Z,99.90
2023-04-27T02:50:23.448Z,99.90
2023-04-27T02:52:50.136Z,99.90
2023-04-27T02:55:17.211Z,99.90
2023-04-27T02:57:44.284Z,99.90
2023-04-27T03:00:11.924Z,99.90
2023-04-27T03:02:38.790Z,99.90
2023-04-27T03:05:06.024Z,99.90
2023-04-27T03:07:32.841Z,99.90
2023-04-27T03:09:59.597Z,99.90
2023-04-27T03:12:26.322Z,99.90
2023-04-27T03:14:53.193Z,99.90
2023-04-27T03:17:19.864Z,99.90
2023-04-27T03:19:48.570Z,99.90
2023-04-27T03:22:15.457Z,99.90
2023-04-27T03:24:42.906Z,99.90
2023-04-27T03:27:09.770Z,99.90
2023-04-27T03:29:36.674Z,99.90
2023-04-27T03:32:04.518Z,99.90
2023-04-27T03:34:31.668Z,99.90
2023-04-27T03:36:58.530Z,99.90
2023-04-27T03:39:25.248Z,99.90
2023-04-27T03:41:52.002Z,99.90
2023-04-27T03:44:18.655Z,99.90
2023-04-27T03:46:45.383Z,99.90
2023-04-27T03:49:12.283Z,99.90
2023-04-27T03:51:42.303Z,99.90
2023-04-27T03:54:10.043Z,99.90
2023-04-27T03:56:37.094Z,99.90
2023-04-27T03:59:06.652Z,99.90
2023-04-27T04:01:34.176Z,99.90
2023-04-27T04:04:01.136Z,99.90
2023-04-27T04:06:28.136Z,99.90
2023-04-27T04:08:55.639Z,99.90
2023-04-27T04:11:23.528Z,99.90
2023-04-27T04:13:50.236Z,99.90
2023-04-27T04:16:16.948Z,99.90
2023-04-27T04:18:43.655Z,99.90
2023-04-27T04:21:13.173Z,99.90
2023-04-27T04:23:41.246Z,99.90
2023-04-27T04:26:08.923Z,99.90
2023-04-27T04:28:35.947Z,99.90
2023-04-27T04:31:03.236Z,99.90
2023-04-27T04:33:29.971Z,99.90
2023-04-27T04:35:57.231Z,99.90
2023-04-27T04:38:23.979Z,99.90
2023-04-27T04:40:52.625Z,99.90
2023-04-27T04:43:19.345Z,99.90
2023-04-27T04:45:46.790Z,99.90
2023-04-27T04:48:17.554Z,99.90
2023-04-27T04:50:44.310Z,99.90
2023-04-27T04:53:11.109Z,99.90
2023-04-27T04:55:37.794Z,99.90
2023-04-27T04:58:04.534Z,99.90
2023-04-27T05:00:31.356Z,99.90
2023-04-27T05:02:58.342Z,99.90
2023-04-27T05:05:25.090Z,99.90
2023-04-27T05:07:51.740Z,99.90
2023-04-27T05:10:18.617Z,99.90
2023-04-27T05:12:45.505Z,99.90
2023-04-27T05:15:12.395Z,99.90
2023-04-27T05:17:39.226Z,99.90
2023-04-27T05:20:07.090Z,99.90
2023-04-27T05:22:33.922Z,99.90
2023-04-27T05:25:00.742Z,99.90
2023-04-27T05:27:27.528Z,99.90
2023-04-27T05:29:54.347Z,99.90
2023-04-27T05:32:21.080Z,99.90
2023-04-27T05:34:49.481Z,99.90
2023-04-27T05:37:16.505Z,99.90
2023-04-27T05:39:43.214Z,99.90
2023-04-27T05:42:10.172Z,99.90
2023-04-27T05:44:36.873Z,99.90
2023-04-27T05:47:03.649Z,99.90
2023-04-27T05:49:30.568Z,99.90
2023-04-27T05:51:59.078Z,99.90
2023-04-27T05:54:27.498Z,99.90
2023-04-27T05:56:54.300Z,99.90
2023-04-27T05:59:21.867Z,99.90
2023-04-27T06:01:48.870Z,99.90
2023-04-27T06:04:15.839Z,99.90
2023-04-27T06:06:42.675Z,99.90
2023-04-27T06:09:09.436Z,99.90
2023-04-27T06:11:36.215Z,99.90
2023-04-27T06:14:02.956Z,99.90
2023-04-27T06:16:29.827Z,99.90
2023-04-27T06:18:56.665Z,99.90
2023-04-27T06:21:23.391Z,99.90
2023-04-27T06:23:50.086Z,99.90
2023-04-27T06:26:16.793Z,99.90
2023-04-27T06:28:43.738Z,99.90
2023-04-27T06:31:10.500Z,99.90
2023-04-27T06:33:37.268Z,99.90
2023-04-27T06:36:04.092Z,99.90
2023-04-27T06:38:31.020Z,99.90
2023-04-27T06:40:57.912Z,99.90
2023-04-27T06:43:24.825Z,99.90
2023-04-27T06:45:51.755Z,99.90
2023-04-27T06:48:18.555Z,99.90
2023-04-27T06:50:45.365Z,99.90
2023-04-27T06:53:12.258Z,99.90
2023-04-27T06:55:41.607Z,99.90
2023-04-27T06:58:09.878Z,99.90
2023-04-27T07:00:36.639Z,99.90
2023-04-27T07:03:03.545Z,99.90
2023-04-27T07:05:30.426Z,99.90
2023-04-27T07:07:57.178Z,99.90
2023-04-27T07:10:23.911Z,99.90
2023-04-27T07:12:50.670Z,99.90
2023-04-27T07:15:17.449Z,99.90
2023-04-27T07:17:44.207Z,99.90
2023-04-27T07:20:11.335Z,99.90
2023-04-27T07:22:38.068Z,99.60
2023-04-27T07:25:05.433Z,99.40
2023-04-27T07:27:32.955Z,99.20
2023-04-27T07:29:59.649Z,99.00
2023-04-27T07:32:26.798Z,98.70
2023-04-27T07:34:55.694Z,98.50
2023-04-27T07:37:23.304Z,98.40
2023-04-27T07:39:52.991Z,98.40
2023-04-27T07:42:20.242Z,98.20
2023-04-27T07:44:47.376Z,97.90
2023-04-27T07:47:14.351Z,97.80
2023-04-27T07:49:41.093Z,97.60
2023-04-27T07:52:08.322Z,97.30
2023-04-27T07:54:35.738Z,97.10
2023-04-27T07:57:07.612Z,96.90
2023-04-27T07:59:34.427Z,96.70
2023-04-27T08:02:17.782Z,96.60
2023-04-27T08:04:46.920Z,96.40
2023-04-27T08:07:15.011Z,96.20
2023-04-27T08:09:41.964Z,95.90
2023-04-27T08:12:08.674Z,95.60
2023-04-27T08:14:36.204Z,95.30
2023-04-27T08:17:03.113Z,95.10
2023-04-27T08:19:29.919Z,94.90
2023-04-27T08:21:56.723Z,94.80
2023-04-27T08:24:23.761Z,94.50
2023-04-27T08:26:50.686Z,94.10
2023-04-27T08:29:27.206Z,93.70
2023-04-27T08:31:58.989Z,93.40
2023-04-27T08:34:26.177Z,93.20
2023-04-27T08:36:54.118Z,92.80
2023-04-27T08:39:21.693Z,92.60
2023-04-27T08:41:48.408Z,92.50
2023-04-27T08:44:15.273Z,92.30
2023-04-27T08:46:42.474Z,92.10
2023-04-27T08:49:09.989Z,91.70
2023-04-27T08:51:36.807Z,91.30
2023-04-27T08:54:03.675Z,91.00
2023-04-27T08:56:31.308Z,90.80
2023-04-27T08:59:00.687Z,90.80
2023-04-27T09:01:27.733Z,90.20
2023-04-27T09:04:00.283Z,90.10
2023-04-27T09:06:35.570Z,89.50
2023-04-27T09:09:03.490Z,88.70
2023-04-27T09:11:33.116Z,88.40
2023-04-27T09:14:01.313Z,87.80
2023-04-27T09:16:29.535Z,87.40
2023-04-27T09:18:59.693Z,87.20
2023-04-27T09:21:28.785Z,86.90
2023-04-27T09:23:56.474Z,86.30
2023-04-27T09:26:27.803Z,85.30
2023-04-27T09:28:59.157Z,84.90
2023-04-27T09:31:33.217Z,85.10
2023-04-27T09:34:00.262Z,84.20
2023-04-27T09:36:27.067Z,83.90
2023-04-27T09:38:54.094Z,83.50
2023-04-27T09:41:21.866Z,82.90
2023-04-27T09:43:48.912Z,82.90
2023-04-27T09:46:15.848Z,82.90
2023-04-27T09:48:43.060Z,82.30
2023-04-27T09:51:09.868Z,81.40
2023-04-27T09:53:44.164Z,81.00
2023-04-27T09:56:42.305Z,80.90
2023-04-27T09:59:20.679Z,81.40
2023-04-27T10:01:51.349Z,81.00
2023-04-27T10:04:24.402Z,80.80
2023-04-27T10:07:01.641Z,79.80
2023-04-27T10:09:35.576Z,79.20
2023-04-27T10:12:15.674Z,79.50
2023-04-27T10:14:48.931Z,80.30
2023-04-27T10:17:16.498Z,80.10
2023-04-27T10:19:57.309Z,79.50
2023-04-27T10:22:37.615Z,79.00
2023-04-27T10:25:14.068Z,78.70
2023-04-27T10:27:41.173Z,78.00
2023-04-27T10:30:13.090Z,77.20
2023-04-27T10:32:56.852Z,76.30
2023-04-27T10:35:36.634Z,75.00
2023-04-27T10:38:10.355Z,75.50
2023-04-27T10:40:38.720Z,75.30
2023-04-27T10:43:13.776Z,75.00
2023-04-27T10:45:44.675Z,74.00
2023-04-27T10:48:15.745Z,73.30
2023-04-27T10:50:44.645Z,73.50
2023-04-27T10:53:11.386Z,73.50
2023-04-27T10:55:38.445Z,72.40
2023-04-27T10:58:05.224Z,72.10
2023-04-27T11:00:35.387Z,71.60
2023-04-27T11:03:19.723Z,72.30
2023-04-27T11:05:48.222Z,72.40
2023-04-27T11:08:19.421Z,71.60
2023-04-27T11:10:49.846Z,71.50
2023-04-27T11:13:20.220Z,71.30
2023-04-27T11:15:57.535Z,71.50
2023-04-27T11:18:26.981Z,70.40
2023-04-27T11:21:11.052Z,69.40
2023-04-27T11:23:39.033Z,70.20
2023-04-27T11:26:26.746Z,69.70
2023-04-27T11:29:05.320Z,68.90
2023-04-27T11:31:49.380Z,68.20
2023-04-27T11:34:17.209Z,68.40
2023-04-27T11:36:44.112Z,67.00
2023-04-27T11:39:19.374Z,67.30
2023-04-27T11:41:46.578Z,66.60
2023-04-27T11:44:13.526Z,66.20
2023-04-27T11:46:44.123Z,64.90
2023-04-27T11:49:11.273Z,64.00
2023-04-27T11:51:40.431Z,62.60
2023-04-27T11:54:07.863Z,63.30
2023-04-27T11:56:39.978Z,63.20
2023-04-27T11:59:17.708Z,60.80
2023-04-27T12:01:44.516Z,60.50
2023-04-27T12:04:11.423Z,61.40
2023-04-27T12:06:38.965Z,61.00
2023-04-27T12:09:05.774Z,62.60
2023-04-27T12:11:33.256Z,62.70
2023-04-27T12:13:59.921Z,63.00
2023-04-27T12:16:27.073Z,62.10
2023-04-27T12:18:53.846Z,60.60
2023-04-27T12:21:21.353Z,61.20
2023-04-27T12:23:48.099Z,60.10
2023-04-27T12:26:15.450Z,59.10
2023-04-27T12:28:42.497Z,59.10
2023-04-27T12:31:13.522Z,59.30
2023-04-27T12:33:40.587Z,59.90
2023-04-27T12:36:07.569Z,59.20
2023-04-27T12:38:34.286Z,58.20
2023-04-27T12:41:02.564Z,58.20
2023-04-27T12:43:29.228Z,58.00
2023-04-27T12:45:56.286Z,57.30
2023-04-27T12:48:23.607Z,57.00
2023-04-27T12:50:50.542Z,57.70
2023-04-27T12:53:17.265Z,57.70
2023-04-27T12:55:44.112Z,57.70
2023-04-27T12:58:11.042Z,58.40
2023-04-27T13:00:38.506Z,58.00
2023-04-27T13:03:06.788Z,57.60
2023-04-27T13:05:33.734Z,57.40
2023-04-27T13:08:01.620Z,56.50
2023-04-27T13:10:29.615Z,56.40
2023-04-27T13:12:56.360Z,56.90
2023-04-27T13:15:23.106Z,57.10
2023-04-27T13:17:49.903Z,56.80
2023-04-27T13:20:17.066Z,56.40
2023-04-27T13:22:43.825Z,56.50
2023-04-27T13:25:10.626Z,56.10
2023-04-27T13:27:37.399Z,55.30
2023-04-27T13:30:05.503Z,56.00
2023-04-27T13:32:32.399Z,56.70
2023-04-27T13:34:59.586Z,57.00
2023-04-27T13:37:27.086Z,56.90
2023-04-27T13:39:53.808Z,56.60
2023-04-27T13:42:20.709Z,56.80
2023-04-27T13:44:47.431Z,57.00
2023-04-27T13:47:14.386Z,57.60
2023-04-27T13:49:41.274Z,57.70
2023-04-27T13:52:08.045Z,58.30
2023-04-27T13:54:34.817Z,58.90
2023-04-27T13:57:03.400Z,59.10
2023-04-27T13:59:30.375Z,59.40
2023-04-27T14:01:57.138Z,59.60
2023-04-27T14:04:23.939Z,59.40
2023-04-27T14:06:50.824Z,59.00
2023-04-27T14:09:17.538Z,58.30
2023-04-27T14:11:55.706Z,58.30
2023-04-27T14:14:24.201Z,58.10
2023-04-27T14:16:51.383Z,58.50
2023-04-27T14:19:20.420Z,59.00
2023-04-27T14:21:49.206Z,59.00
2023-04-27T14:24:16.176Z,59.10
2023-04-27T14:26:44.192Z,58.50
2023-04-27T14:29:11.777Z,58.80
2023-04-27T14:31:39.330Z,58.90
2023-04-27T14:34:06.927Z,58.40
2023-04-27T14:36:33.774Z,57.30
2023-04-27T14:39:01.439Z,57.20
2023-04-27T14:41:28.352Z,56.00
2023-04-27T14:43:55.162Z,55.70
2023-04-27T14:46:22.236Z,55.80
2023-04-27T14:48:49.796Z,56.10
2023-04-27T14:51:16.824Z,55.90
2023-04-27T14:53:44.235Z,56.00
2023-04-27T14:56:11.608Z,55.40
2023-04-27T14:58:38.779Z,55.30
2023-04-27T15:01:06.101Z,55.50
2023-04-27T15:03:33.415Z,55.30
2023-04-27T15:06:01.567Z,55.00
2023-04-27T15:08:28.945Z,55.10
2023-04-27T15:10:59.632Z,55.70
2023-04-27T15:13:27.302Z,55.40
2023-04-27T15:15:57.758Z,55.20
2023-04-27T15:18:25.309Z,55.20
2023-04-27T15:20:52.831Z,55.20
2023-04-27T15:23:20.271Z,55.30
2023-04-27T15:25:47.886Z,56.10
2023-04-27T15:28:16.258Z,55.90
2023-04-27T15:30:46.333Z,55.90
2023-04-27T15:33:16.088Z,55.70
2023-04-27T15:35:43.098Z,55.50
2023-04-27T15:38:12.191Z,55.80
2023-04-27T15:40:40.009Z,56.30
2023-04-27T15:43:06.927Z,56.10
2023-04-27T15:45:33.941Z,56.80
2023-04-27T15:48:00.757Z,57.10
2023-04-27T15:50:27.661Z,56.00
2023-04-27T15:52:54.431Z,55.60
2023-04-27T15:55:22.734Z,56.00
2023-04-27T15:57:50.348Z,56.30
2023-04-27T16:00:18.855Z,56.70
2023-04-27T16:02:46.929Z,56.50
2023-04-27T16:08:54.477Z,56.50
2023-04-27T16:11:21.324Z,56.00
2023-04-27T16:13:48.174Z,55.50
2023-04-27T16:16:14.940Z,55.00
2023-04-27T16:18:41.898Z,54.90
2023-04-27T16:21:08.755Z,55.50
2023-04-27T16:23:35.644Z,56.50
2023-04-27T16:26:02.329Z,56.90
2023-04-27T16:28:29.076Z,57.80
2023-04-27T16:30:55.846Z,58.40
2023-04-27T16:33:22.549Z,58.40
2023-04-27T16:35:49.886Z,57.50
2023-04-27T16:38:16.638Z,57.20
2023-04-27T16:40:43.551Z,57.20
2023-04-27T16:43:10.637Z,57.60
2023-04-27T16:45:38.838Z,57.90
2023-04-27T16:48:06.287Z,58.20
2023-04-27T16:50:33.454Z,58.30
2023-04-27T16:53:08.077Z,58.30
2023-04-27T16:55:35.498Z,58.40
2023-04-27T16:58:02.298Z,58.80
2023-04-27T17:00:29.528Z,59.00
2023-04-27T17:02:56.576Z,59.30
2023-04-27T17:05:23.544Z,59.00
2023-04-27T17:07:50.223Z,58.70
2023-04-27T17:10:18.488Z,59.00
2023-04-27T17:12:45.161Z,59.40
2023-04-27T17:15:12.302Z,59.60
2023-04-27T17:17:39.045Z,60.00
2023-04-27T17:20:07.588Z,60.50
2023-04-27T17:22:34.380Z,60.80
2023-04-27T17:25:01.137Z,60.90
2023-04-27T17:27:27.845Z,61.30
2023-04-27T17:29:56.149Z,61.50
2023-04-27T17:32:24.584Z,61.50
2023-04-27T17:34:52.518Z,61.40
2023-04-27T17:37:19.427Z,61.70
2023-04-27T17:39:46.551Z,61.30
2023-04-27T17:42:13.266Z,61.50
2023-04-27T17:44:42.023Z,62.30
2023-04-27T17:47:09.150Z,63.10
2023-04-27T17:49:36.325Z,63.50
2023-04-27T17:52:03.166Z,63.40
2023-04-27T17:54:30.312Z,63.00
2023-04-27T17:56:57.544Z,62.50
2023-04-27T17:59:24.933Z,62.40
2023-04-27T18:01:52.139Z,62.70
2023-04-27T18:04:19.124Z,64.00
2023-04-27T18:06:46.099Z,63.40
2023-04-27T18:09:12.999Z,63.50
2023-04-27T18:11:39.852Z,63.50
2023-04-27T18:14:06.695Z,63.40
2023-04-27T18:16:33.494Z,63.60
2023-04-27T18:19:00.271Z,64.00
2023-04-27T18:21:27.903Z,64.10
2023-04-27T18:23:54.636Z,64.30
2023-04-27T18:26:22.071Z,64.20
2023-04-27T18:28:48.752Z,64.10
2023-04-27T18:31:19.285Z,64.00
2023-04-27T18:33:46.725Z,63.90
2023-04-27T18:36:13.579Z,64.20
2023-04-27T18:38:40.619Z,64.70
2023-04-27T18:41:07.912Z,64.80
2023-04-27T18:43:36.604Z,64.60
2023-04-27T18:46:04.348Z,64.70
2023-04-27T18:48:31.433Z,65.30
2023-04-27T18:50:58.241Z,65.70
2023-04-27T18:53:24.973Z,66.00
2023-04-27T18:55:51.775Z,66.10
2023-04-27T18:58:18.492Z,66.20
2023-04-27T19:00:45.428Z,66.50
2023-04-27T19:03:12.340Z,66.90
2023-04-27T19:05:45.584Z,66.90
2023-04-27T19:08:12.317Z,67.20
2023-04-27T19:10:41.528Z,67.60
2023-04-27T19:13:08.517Z,68.50
2023-04-27T19:15:35.498Z,68.00
2023-04-27T19:18:09.945Z,68.20
2023-04-27T19:20:38.480Z,68.20
2023-04-27T19:23:05.512Z,68.10
2023-04-27T19:25:32.305Z,68.20
2023-04-27T19:27:59.040Z,68.70
2023-04-27T19:30:25.922Z,69.20
2023-04-27T19:32:52.771Z,69.20
2023-04-27T19:35:20.388Z,69.80
2023-04-27T19:37:47.202Z,70.40
2023-04-27T19:40:14.926Z,70.70
2023-04-27T19:42:41.650Z,70.40
2023-04-27T19:45:08.535Z,70.80
2023-04-27T19:47:35.682Z,71.20
2023-04-27T19:50:03.073Z,71.20
2023-04-27T19:52:30.705Z,71.20
2023-04-27T19:54:57.778Z,71.20
2023-04-27T19:57:24.508Z,71.30
2023-04-27T19:59:51.241Z,72.10
2023-04-27T20:02:18.033Z,71.70
2023-04-27T20:04:44.988Z,71.70
2023-04-27T20:07:12.180Z,71.60
2023-04-27T20:09:38.962Z,71.70
2023-04-27T20:12:05.884Z,72.40
2023-04-27T20:14:35.233Z,72.60
2023-04-27T20:17:02.955Z,72.70
2023-04-27T20:19:30.184Z,72.70
2023-04-27T20:21:57.058Z,72.80
2023-04-27T20:24:24.020Z,72.80
2023-04-27T20:26:50.810Z,72.90
2023-04-27T20:29:17.474Z,72.90
2023-04-27T20:31:44.965Z,73.10
2023-04-27T20:34:11.869Z,73.40
2023-04-27T20:36:38.685Z,73.50
2023-04-27T20:39:05.571Z,73.50
2023-04-27T20:41:35.148Z,74.30
2023-04-27T20:44:02.598Z,73.60
2023-04-27T20:46:29.911Z,73.60
2023-04-27T20:48:56.640Z,73.80
2023-04-27T20:51:23.725Z,73.80
2023-04-27T20:53:50.941Z,73.80
2023-04-27T20:56:17.636Z,74.00
2023-04-27T20:58:44.276Z,74.10
2023-04-27T21:01:11.188Z,74.10
2023-04-27T21:03:38.023Z,74.30
2023-04-27T21:06:05.052Z,74.20
2023-04-27T21:08:31.799Z,73.90
2023-04-27T21:10:58.602Z,74.20
2023-04-27T21:13:25.450Z,74.50
2023-04-27T21:15:52.130Z,74.60
2023-04-27T21:18:29.071Z,74.80
2023-04-27T21:20:57.380Z,75.00
2023-04-27T21:23:24.147Z,75.10
2023-04-27T21:25:50.839Z,75.20
2023-04-27T21:28:17.556Z,75.40
2023-04-27T21:30:44.330Z,75.40
2023-04-27T21:33:11.143Z,75.50
2023-04-27T21:35:37.904Z,75.80
2023-04-27T21:38:04.615Z,75.90
2023-04-27T21:40:31.348Z,76.00
2023-04-27T21:42:58.070Z,76.20
2023-04-27T21:45:24.886Z,76.40
2023-04-27T21:47:51.625Z,76.60
2023-04-27T21:50:18.544Z,76.60
2023-04-27T21:52:45.464Z,76.60
2023-04-27T21:55:12.326Z,76.80
2023-04-27T21:57:39.102Z,76.90
2023-04-27T22:00:13.434Z,77.10
2023-04-27T22:02:42.692Z,77.30
2023-04-27T22:05:09.764Z,77.40
2023-04-27T22:07:37.579Z,77.30
2023-04-27T22:10:05.779Z,77.50
2023-04-27T22:12:33.397Z,77.80
2023-04-27T22:15:00.256Z,78.00
2023-04-27T22:17:27.774Z,78.00
2023-04-27T22:19:54.865Z,77.70
2023-04-27T22:22:21.581Z,77.80
2023-04-27T22:24:48.659Z,78.00
2023-04-27T22:27:15.607Z,78.00
2023-04-27T22:29:42.329Z,78.20
2023-04-27T22:32:09.752Z,78.10
2023-04-27T22:34:37.209Z,78.10
2023-04-27T22:37:04.072Z,78.30
2023-04-27T22:39:31.583Z,78.40
2023-04-27T22:41:58.358Z,78.50
2023-04-27T22:44:25.896Z,78.70
2023-04-27T22:46:52.741Z,78.80
2023-04-27T22:49:19.554Z,79.10
2023-04-27T22:51:47.313Z,79.00
2023-04-27T22:54:15.029Z,79.00
2023-04-27T22:56:42.013Z,79.00
2023-04-27T22:59:08.820Z,79.00
2023-04-27T23:01:35.701Z,79.00
2023-04-27T23:04:02.912Z,79.00
2023-04-27T23:06:30.351Z,79.20
2023-04-27T23:08:57.202Z,79.40
2023-04-27T23:11:24.045Z,79.70
2023-04-27T23:13:50.815Z,80.00
2023-04-27T23:16:17.531Z,80.40
2023-04-27T23:18:44.362Z,81.10
2023-04-27T23:21:11.623Z,80.40
2023-04-27T23:23:38.385Z,80.40
2023-04-27T23:26:14.957Z,81.40
2023-04-27T23:28:41.915Z,81.00
2023-04-27T23:31:09.183Z,81.10
2023-04-27T23:33:36.126Z,81.30
2023-04-27T23:36:03.539Z,81.50
2023-04-27T23:38:30.315Z,81.70
2023-04-27T23:40:57.181Z,82.00
2023-04-27T23:43:23.998Z,82.10
2023-04-27T23:45:53.930Z,82.60
2023-04-27T23:51:05.174Z,83.80
2023-04-27T23:53:31.847Z,84.20
2023-04-27T23:55:58.795Z,84.80
2023-04-27T23:58:26.127Z,85.50
